Time;durP1;ratioP1;P1;durP2;ratioP2;P2;SDS_P1;SDS_P2;PMS_P1;PMS_P2;Temp;Humidity;BMP_temperature;BMP_pressure;BME280_temperature;BME280_humidity;BME280_pressure;Samples;Min_cycle;Max_cycle;Signal;HPM_P1;HPM_P2
2022/07/19 00:00:11;;;;;;;11.35;6.75;;;20.60;99.90;;;;;;5033454;28;20053;-58
2022/07/19 00:02:38;;;;;;;11.32;7.30;;;20.70;99.90;;;;;;5032124;28;20033;-58
2022/07/19 00:05:06;;;;;;;12.75;6.45;;;20.70;99.90;;;;;;5031921;28;20069;-58
2022/07/19 00:07:31;;;;;;;12.88;7.72;;;20.60;99.90;;;;;;5033024;28;20041;-58
2022/07/19 00:09:57;;;;;;;12.20;8.43;;;20.60;99.90;;;;;;5033246;28;20384;-58
2022/07/19 00:12:23;;;;;;;13.15;7.43;;;20.50;99.90;;;;;;5032020;28;20033;-58
2022/07/19 00:14:48;;;;;;;12.63;7.30;;;20.50;99.90;;;;;;5031901;28;20470;-58
2022/07/19 00:17:14;;;;;;;12.45;7.25;;;20.50;99.90;;;;;;5033207;28;20033;-58
2022/07/19 00:19:40;;;;;;;11.32;6.70;;;20.40;99.90;;;;;;5032930;28;20045;-58
2022/07/19 00:22:06;;;;;;;11.85;6.90;;;20.40;99.90;;;;;;5051292;28;20126;-58
2022/07/19 00:24:31;;;;;;;12.00;7.15;;;20.30;99.90;;;;;;5052505;28;20155;-58
2022/07/19 00:26:57;;;;;;;12.18;7.53;;;20.40;99.90;;;;;;5052689;28;20033;-58
2022/07/19 00:29:23;;;;;;;11.63;7.25;;;20.40;99.90;;;;;;5052333;28;20409;-58
2022/07/19 00:31:49;;;;;;;12.25;7.35;;;20.30;99.90;;;;;;5052472;28;20043;-58
2022/07/19 00:34:15;;;;;;;13.15;7.70;;;20.30;99.90;;;;;;5052768;28;20048;-58
2022/07/19 00:36:41;;;;;;;15.10;7.07;;;20.30;99.90;;;;;;5052580;28;20045;-58
2022/07/19 00:39:07;;;;;;;11.27;7.32;;;20.30;99.90;;;;;;5052669;28;20045;-58
2022/07/19 00:41:37;;;;;;;11.73;7.32;;;20.30;99.90;;;;;;5052593;28;20460;-58
2022/07/19 00:44:03;;;;;;;12.02;6.75;;;20.30;99.90;;;;;;5052433;28;20044;-58
2022/07/19 00:46:29;;;;;;;10.10;7.03;;;20.20;99.90;;;;;;5052378;28;20049;-58
2022/07/19 00:48:55;;;;;;;11.73;7.25;;;20.20;99.90;;;;;;5052166;28;20040;-58
2022/07/19 00:51:21;;;;;;;11.23;7.20;;;20.30;99.90;;;;;;5052167;28;20178;-57
2022/07/19 00:53:47;;;;;;;10.15;6.68;;;20.20;99.90;;;;;;5050900;28;20521;-58
2022/07/19 00:56:13;;;;;;;12.18;7.13;;;20.30;99.90;;;;;;5052206;28;20033;-58
2022/07/19 00:58:39;;;;;;;11.48;6.30;;;20.30;99.90;;;;;;5051222;28;20076;-58
2022/07/19 01:01:07;;;;;;;11.65;6.38;;;20.20;99.90;;;;;;5052077;28;20049;-58
2022/07/19 01:03:36;;;;;;;11.13;6.55;;;20.20;99.90;;;;;;5052289;28;20401;-58
2022/07/19 01:06:02;;;;;;;11.05;6.07;;;20.20;99.90;;;;;;5052144;28;20037;-58
2022/07/19 01:08:27;;;;;;;11.90;7.18;;;20.30;99.90;;;;;;5051945;28;20041;-58
2022/07/19 01:10:53;;;;;;;12.82;7.00;;;20.20;99.90;;;;;;5052372;28;20039;-58
2022/07/19 01:13:20;;;;;;;11.25;6.80;;;20.20;99.90;;;;;;5051931;28;20405;-58
2022/07/19 01:15:45;;;;;;;14.82;7.65;;;20.20;99.90;;;;;;5051038;28;20033;-58
2022/07/19 01:18:11;;;;;;;10.38;6.43;;;20.20;99.90;;;;;;5052217;28;20111;-58
2022/07/19 01:20:37;;;;;;;14.82;6.47;;;20.20;99.90;;;;;;5044195;28;20466;-58
2022/07/19 01:23:03;;;;;;;12.65;7.00;;;20.20;99.90;;;;;;5032005;28;20045;-58
2022/07/19 01:25:31;;;;;;;11.35;6.82;;;20.20;99.90;;;;;;5032238;28;20080;-57
2022/07/19 01:27:58;;;;;;;11.50;6.32;;;20.20;99.90;;;;;;5031712;28;20081;-58
2022/07/19 01:30:25;;;;;;;11.07;6.60;;;20.20;99.90;;;;;;5031983;28;20057;-58
2022/07/19 01:32:52;;;;;;;10.75;6.47;;;20.20;99.90;;;;;;5031819;28;20042;-58
2022/07/19 01:35:18;;;;;;;10.55;6.45;;;20.20;99.90;;;;;;5031795;28;20091;-58
2022/07/19 01:37:44;;;;;;;12.48;7.47;;;20.20;99.90;;;;;;5031841;28;20156;-57
2022/07/19 01:40:11;;;;;;;11.23;6.97;;;20.10;99.90;;;;;;5031859;28;20073;-56
2022/07/19 01:42:38;;;;;;;11.13;7.20;;;20.20;99.90;;;;;;5031782;28;20113;-58
2022/07/19 01:45:06;;;;;;;12.15;6.75;;;20.10;99.90;;;;;;5032043;28;20037;-58
2022/07/19 01:47:33;;;;;;;12.02;7.07;;;20.00;99.90;;;;;;5031684;28;20102;-58
2022/07/19 01:49:58;;;;;;;10.25;6.28;;;20.00;99.90;;;;;;5032006;28;20120;-58
2022/07/19 01:52:24;;;;;;;13.77;7.72;;;20.10;99.90;;;;;;5030522;28;20423;-57
2022/07/19 01:54:50;;;;;;;11.73;6.30;;;20.10;99.90;;;;;;5032118;28;20037;-58
2022/07/19 01:57:15;;;;;;;10.95;6.22;;;20.10;99.90;;;;;;5031613;28;20049;-58
2022/07/19 01:59:41;;;;;;;11.50;6.90;;;20.00;99.90;;;;;;5030788;28;20049;-58
2022/07/19 02:02:07;;;;;;;11.75;7.07;;;20.00;99.90;;;;;;5031888;28;20052;-57
2022/07/19 02:04:33;;;;;;;10.95;6.65;;;20.00;99.90;;;;;;5031670;28;20041;-58
2022/07/19 02:06:59;;;;;;;11.35;6.60;;;19.90;99.90;;;;;;5030681;28;20087;-58
2022/07/19 02:09:25;;;;;;;9.75;5.95;;;19.90;99.90;;;;;;5031946;28;20088;-58
2022/07/19 02:11:51;;;;;;;12.15;6.65;;;20.00;99.90;;;;;;5035522;28;20041;-58
2022/07/19 02:14:17;;;;;;;12.77;6.72;;;20.00;99.90;;;;;;5035263;28;20047;-58
2022/07/19 02:16:44;;;;;;;10.55;6.20;;;20.00;99.90;;;;;;5033666;28;20042;-58
2022/07/19 02:19:10;;;;;;;11.57;6.85;;;19.90;99.90;;;;;;5035308;28;20037;-58
2022/07/19 02:21:37;;;;;;;13.25;7.00;;;19.90;99.90;;;;;;5051010;28;20077;-58
2022/07/19 02:24:05;;;;;;;15.52;7.13;;;19.90;99.90;;;;;;5070059;28;20051;-56
2022/07/19 02:26:31;;;;;;;10.38;6.63;;;19.90;99.90;;;;;;5054932;28;20045;-58
2022/07/19 02:28:56;;;;;;;12.20;6.95;;;19.80;99.90;;;;;;5070031;28;20413;-58
2022/07/19 02:31:23;;;;;;;11.45;6.97;;;19.80;99.90;;;;;;5055081;28;20049;-58
2022/07/19 02:33:49;;;;;;;11.45;7.28;;;19.80;99.90;;;;;;5054912;28;20040;-58
2022/07/19 02:36:15;;;;;;;10.85;6.78;;;19.70;99.90;;;;;;5053496;28;20041;-58
2022/07/19 02:38:40;;;;;;;12.52;7.05;;;19.70;99.90;;;;;;5070097;28;20091;-58
2022/07/19 02:41:06;;;;;;;10.48;6.70;;;19.70;99.90;;;;;;5054891;28;20080;-58
2022/07/19 02:43:32;;;;;;;10.45;5.93;;;19.70;99.90;;;;;;5054763;28;20482;-58
2022/07/19 02:45:57;;;;;;;11.80;6.40;;;19.60;99.90;;;;;;5054745;28;20040;-58
2022/07/19 02:48:23;;;;;;;11.07;6.30;;;19.70;99.90;;;;;;5054285;28;20503;-58
2022/07/19 02:50:49;;;;;;;12.30;6.63;;;19.60;99.90;;;;;;5054352;28;20033;-57
2022/07/19 02:53:15;;;;;;;14.07;6.55;;;19.60;99.90;;;;;;5054385;28;20033;-57
2022/07/19 02:55:41;;;;;;;11.20;6.18;;;19.60;99.90;;;;;;5054493;28;20036;-58
2022/07/19 02:58:07;;;;;;;10.57;6.35;;;19.60;99.90;;;;;;5054233;28;20041;-58
2022/07/19 03:00:33;;;;;;;11.40;6.68;;;19.50;99.90;;;;;;5053979;28;20151;-58
2022/07/19 03:05:44;;;;;;;12.88;6.45;;;19.50;99.90;;;;;;5052830;28;20131;-58
2022/07/19 03:08:10;;;;;;;11.55;6.25;;;19.60;99.90;;;;;;5054165;28;20044;-58
2022/07/19 03:10:36;;;;;;;9.98;6.53;;;19.60;99.90;;;;;;5054097;28;20490;-58
2022/07/19 03:13:02;;;;;;;9.95;6.18;;;19.60;99.90;;;;;;5054178;28;20049;-58
2022/07/19 03:15:27;;;;;;;10.35;6.13;;;19.60;99.90;;;;;;5054055;28;20037;-58
2022/07/19 03:17:53;;;;;;;12.77;7.05;;;19.70;99.90;;;;;;5054029;28;20043;-58
2022/07/19 03:20:19;;;;;;;9.90;5.80;;;19.60;99.90;;;;;;5048517;28;20036;-58
2022/07/19 03:22:44;;;;;;;11.45;6.82;;;19.60;99.90;;;;;;5033266;28;20040;-58
2022/07/19 03:25:10;;;;;;;11.75;7.00;;;19.60;99.90;;;;;;5033821;28;20064;-58
2022/07/19 03:27:36;;;;;;;9.85;6.05;;;19.60;99.90;;;;;;5033848;28;20402;-58
2022/07/19 03:30:02;;;;;;;12.65;7.40;;;19.60;99.90;;;;;;5033554;28;20053;-59
2022/07/19 03:32:28;;;;;;;11.52;6.75;;;19.60;99.90;;;;;;5034032;28;20044;-58
2022/07/19 03:34:54;;;;;;;12.20;6.82;;;19.70;99.90;;;;;;5033798;28;20034;-58
2022/07/19 03:37:19;;;;;;;11.63;6.35;;;19.60;99.90;;;;;;5033923;28;20037;-59
2022/07/19 03:39:45;;;;;;;13.57;7.07;;;19.60;99.90;;;;;;5033589;28;20477;-59
2022/07/19 03:42:10;;;;;;;12.88;7.03;;;19.50;99.90;;;;;;5033476;28;20041;-59
2022/07/19 03:44:36;;;;;;;11.50;7.15;;;19.50;99.90;;;;;;5033657;28;20083;-56
2022/07/19 03:47:02;;;;;;;10.65;6.60;;;19.50;99.90;;;;;;5033746;28;20046;-57
2022/07/19 03:49:27;;;;;;;11.50;6.85;;;19.50;99.90;;;;;;5033479;28;20128;-57
2022/07/19 03:51:53;;;;;;;11.55;6.18;;;19.50;99.90;;;;;;5033517;28;20076;-57
2022/07/19 03:54:18;;;;;;;13.38;7.13;;;19.40;99.90;;;;;;5033544;28;20048;-57
2022/07/19 03:56:44;;;;;;;11.82;6.75;;;19.40;99.90;;;;;;5033446;28;20033;-58
2022/07/19 03:59:10;;;;;;;10.68;6.45;;;19.40;99.90;;;;;;5033195;28;20406;-57
2022/07/19 04:01:37;;;;;;;11.73;6.50;;;19.40;99.90;;;;;;5032075;28;20037;-57
2022/07/19 04:04:04;;;;;;;10.75;6.47;;;19.40;99.90;;;;;;5032143;28;20037;-57
2022/07/19 04:06:30;;;;;;;11.57;6.20;;;19.40;99.90;;;;;;5033290;28;20045;-57
2022/07/19 04:08:56;;;;;;;11.45;6.00;;;19.40;99.90;;;;;;5032932;28;20505;-57
2022/07/19 04:11:21;;;;;;;11.10;6.00;;;19.40;99.90;;;;;;5032948;28;20037;-57
2022/07/19 04:13:47;;;;;;;10.63;6.40;;;19.40;99.90;;;;;;5033170;28;20124;-57
2022/07/19 04:16:13;;;;;;;10.40;6.55;;;19.50;99.90;;;;;;5032813;28;20176;-58
2022/07/19 04:18:38;;;;;;;11.23;6.57;;;19.50;99.90;;;;;;5033201;28;20049;-57
2022/07/19 04:21:04;;;;;;;10.45;6.60;;;19.50;99.90;;;;;;5044327;28;20048;-57
2022/07/19 04:23:30;;;;;;;11.65;6.43;;;19.50;99.90;;;;;;5052605;28;20080;-57
2022/07/19 04:25:56;;;;;;;10.32;6.85;;;19.50;99.90;;;;;;5068029;28;20084;-57
2022/07/19 04:28:22;;;;;;;11.35;6.05;;;19.50;99.90;;;;;;5067842;28;20437;-57
2022/07/19 04:30:48;;;;;;;11.02;6.18;;;19.60;99.90;;;;;;5052860;28;20094;-57
2022/07/19 04:33:18;;;;;;;10.43;6.15;;;19.60;99.90;;;;;;5052468;28;20029;-57
2022/07/19 04:35:44;;;;;;;10.82;5.90;;;19.70;99.90;;;;;;5052697;28;20124;-58
2022/07/19 04:38:10;;;;;;;10.65;6.15;;;19.70;99.90;;;;;;5052693;28;20079;-57
2022/07/19 04:40:35;;;;;;;13.07;6.22;;;19.80;99.90;;;;;;5052362;28;20068;-57
2022/07/19 04:43:01;;;;;;;8.52;5.80;;;19.80;99.90;;;;;;5052634;28;20393;-57
2022/07/19 04:45:27;;;;;;;11.35;6.43;;;19.80;99.90;;;;;;5052479;28;20043;-57
2022/07/19 04:47:53;;;;;;;10.50;6.53;;;20.00;99.90;;;;;;5051343;28;20120;-57
2022/07/19 04:50:19;;;;;;;9.88;5.90;;;20.00;99.90;;;;;;5052534;28;20429;-57
2022/07/19 04:52:45;;;;;;;10.73;5.78;;;20.10;99.90;;;;;;5052547;28;20468;-57
2022/07/19 04:55:11;;;;;;;11.55;5.78;;;20.10;99.90;;;;;;5052094;28;20068;-57
2022/07/19 04:57:37;;;;;;;10.80;5.70;;;20.10;99.90;;;;;;5052307;28;20152;-58
2022/07/19 05:00:05;;;;;;;11.82;6.18;;;20.20;99.90;;;;;;5052407;28;20499;-57
2022/07/19 05:02:31;;;;;;;11.32;5.75;;;20.30;99.90;;;;;;5052170;28;20554;-57
2022/07/19 05:04:57;;;;;;;10.38;5.72;;;20.40;99.90;;;;;;5052414;28;20048;-57
2022/07/19 05:07:22;;;;;;;11.20;6.18;;;20.40;99.90;;;;;;5052239;28;20040;-58
2022/07/19 05:09:48;;;;;;;11.20;5.95;;;20.50;99.90;;;;;;5052316;28;20037;-57
2022/07/19 05:12:13;;;;;;;11.10;5.95;;;20.50;99.90;;;;;;5052177;28;20083;-57
2022/07/19 05:14:39;;;;;;;10.77;5.80;;;20.60;99.90;;;;;;5051941;28;20040;-57
2022/07/19 05:17:05;;;;;;;10.57;5.57;;;20.60;99.90;;;;;;5051985;28;20045;-57
2022/07/19 05:19:30;;;;;;;12.25;6.65;;;20.70;99.90;;;;;;5052119;28;20102;-57
2022/07/19 05:21:56;;;;;;;11.63;6.28;;;20.80;99.90;;;;;;5033408;28;20117;-57
2022/07/19 05:24:22;;;;;;;12.82;5.72;;;20.80;99.90;;;;;;5032023;28;20045;-57
2022/07/19 05:26:48;;;;;;;9.82;5.93;;;20.80;99.90;;;;;;5031801;28;20049;-57
2022/07/19 05:29:14;;;;;;;11.20;6.00;;;20.90;99.90;;;;;;5031826;28;20056;-57
2022/07/19 05:31:40;;;;;;;11.25;5.55;;;20.90;99.90;;;;;;5031849;28;20488;-58
2022/07/19 05:34:05;;;;;;;9.82;5.15;;;21.00;99.90;;;;;;5031977;28;20045;-58
2022/07/19 05:36:31;;;;;;;13.40;5.32;;;21.00;99.90;;;;;;5032066;28;20037;-58
2022/07/19 05:38:57;;;;;;;11.90;5.90;;;21.00;99.90;;;;;;5031869;28;20128;-58
2022/07/19 05:41:23;;;;;;;10.88;5.75;;;21.10;99.90;;;;;;5032067;28;20052;-58
2022/07/19 05:43:49;;;;;;;14.07;5.50;;;21.20;99.90;;;;;;5032150;28;20397;-58
2022/07/19 05:46:16;;;;;;;10.02;5.05;;;21.20;99.90;;;;;;5035187;28;20037;-58
2022/07/19 05:48:42;;;;;;;8.30;5.70;;;21.30;99.90;;;;;;5035472;28;20052;-58
2022/07/19 05:51:07;;;;;;;10.25;5.40;;;21.40;99.90;;;;;;5035632;28;20041;-58
2022/07/19 05:53:36;;;;;;;9.55;5.40;;;21.50;99.90;;;;;;5035854;28;20434;-58
2022/07/19 05:56:02;;;;;;;9.65;5.40;;;21.70;99.90;;;;;;5035879;28;20140;-58
2022/07/19 05:58:28;;;;;;;9.13;5.10;;;21.80;99.90;;;;;;5035400;28;20033;-58
2022/07/19 06:03:38;;;;;;;9.73;6.20;;;21.90;99.90;;;;;;5035725;28;20410;-58
2022/07/19 06:06:04;;;;;;;11.05;5.50;;;22.00;99.90;;;;;;5035162;28;20051;-58
2022/07/19 06:08:29;;;;;;;10.63;5.22;;;22.10;99.90;;;;;;5035136;28;20045;-58
2022/07/19 06:10:55;;;;;;;8.18;5.10;;;22.10;99.90;;;;;;5035390;28;20034;-58
2022/07/19 06:13:21;;;;;;;8.88;4.60;;;22.20;99.90;;;;;;5033890;28;20436;-58
2022/07/19 06:15:47;;;;;;;10.45;4.40;;;22.40;99.90;;;;;;5034089;28;20045;-58
2022/07/19 06:18:12;;;;;;;11.30;4.68;;;22.40;99.90;;;;;;5034924;28;20049;-58
2022/07/19 06:20:38;;;;;;;10.07;5.10;;;22.50;99.90;;;;;;5043028;28;20056;-57
2022/07/19 06:23:04;;;;;;;9.30;5.20;;;22.50;99.90;;;;;;5055134;28;20069;-56
2022/07/19 06:25:30;;;;;;;9.32;4.75;;;22.70;99.90;;;;;;5054889;28;20041;-58
2022/07/19 06:27:55;;;;;;;9.20;4.75;;;22.80;99.90;;;;;;5055123;28;20047;-57
2022/07/19 06:30:21;;;;;;;8.65;4.57;;;22.80;99.90;;;;;;5054657;28;20494;-57
2022/07/19 06:32:47;;;;;;;10.55;4.97;;;22.90;99.90;;;;;;5054639;28;20102;-58
2022/07/19 06:35:12;;;;;;;8.10;4.38;;;22.90;99.90;;;;;;5054706;28;20048;-57
2022/07/19 06:37:38;;;;;;;8.38;4.50;;;23.10;99.90;;;;;;5054686;28;20041;-57
2022/07/19 06:40:04;;;;;;;10.23;4.90;;;23.20;99.90;;;;;;5054906;28;20036;-58
2022/07/19 06:42:31;;;;;;;9.85;4.30;;;23.20;99.90;;;;;;5054724;28;20041;-57
2022/07/19 06:44:58;;;;;;;8.77;4.80;;;23.30;99.90;;;;;;5054941;28;20118;-58
2022/07/19 06:47:24;;;;;;;8.43;4.40;;;23.40;99.90;;;;;;5053145;28;20503;-57
2022/07/19 06:49:49;;;;;;;10.10;5.25;;;23.50;99.90;;;;;;5054629;28;20044;-58
2022/07/19 06:52:15;;;;;;;9.30;4.75;;;23.60;99.90;;;;;;5054441;28;20072;-58
2022/07/19 06:54:41;;;;;;;7.72;4.68;;;23.70;99.90;;;;;;5054651;28;20041;-57
2022/07/19 06:57:08;;;;;;;9.20;4.60;;;23.80;99.90;;;;;;5054216;28;20040;-58
2022/07/19 06:59:34;;;;;;;8.25;4.45;;;23.80;99.90;;;;;;5054545;28;20071;-58
2022/07/19 07:01:59;;;;;;;7.63;4.10;;;23.70;99.90;;;;;;5054443;28;20045;-58
2022/07/19 07:04:25;;;;;;;12.10;4.53;;;23.90;99.90;;;;;;5054579;28;20075;-58
2022/07/19 07:06:51;;;;;;;9.23;4.78;;;24.00;99.90;;;;;;5054558;28;20040;-58
2022/07/19 07:09:16;;;;;;;10.25;4.50;;;24.00;99.90;;;;;;5054327;28;20040;-58
2022/07/19 07:11:42;;;;;;;10.55;4.93;;;24.10;99.90;;;;;;5054326;28;20374;-58
2022/07/19 07:14:07;;;;;;;8.77;4.57;;;24.20;99.90;;;;;;5054234;28;20056;-58
2022/07/19 07:16:33;;;;;;;8.70;4.13;;;24.30;99.90;;;;;;5054162;28;20041;-58
2022/07/19 07:18:59;;;;;;;11.02;4.40;;;24.40;99.90;;;;;;5053032;28;20134;-58
2022/07/19 07:21:24;;;;;;;8.80;4.25;;;24.60;99.90;;;;;;5039877;28;20469;-58
2022/07/19 07:23:50;;;;;;;8.15;4.10;;;24.60;99.90;;;;;;5033976;28;20120;-58
2022/07/19 07:26:16;;;;;;;7.65;3.85;;;24.80;99.90;;;;;;5033743;28;20052;-58
2022/07/19 07:28:41;;;;;;;10.07;4.28;;;24.80;99.90;;;;;;5033444;28;20146;-58
2022/07/19 07:31:07;;;;;;;7.80;4.25;;;24.90;99.90;;;;;;5034030;28;20064;-58
2022/07/19 07:33:33;;;;;;;9.18;4.20;;;25.00;99.90;;;;;;5033919;28;20647;-58
2022/07/19 07:35:59;;;;;;;9.32;4.15;;;25.10;99.90;;;;;;5033710;28;20033;-58
2022/07/19 07:38:24;;;;;;;10.43;4.95;;;25.20;99.90;;;;;;5033677;28;20076;-58
2022/07/19 07:40:50;;;;;;;9.90;4.30;;;25.20;99.90;;;;;;5032470;28;20045;-58
2022/07/19 07:43:16;;;;;;;10.00;4.78;;;25.20;99.90;;;;;;5033608;28;20038;-58
2022/07/19 07:45:42;;;;;;;12.57;4.47;;;25.30;99.90;;;;;;5033760;28;20041;-58
2022/07/19 07:48:08;;;;;;;11.02;4.90;;;25.30;99.90;;;;;;5033353;28;20103;-58
2022/07/19 07:50:34;;;;;;;7.65;4.47;;;25.40;99.90;;;;;;5033825;28;20037;-58
2022/07/19 07:52:59;;;;;;;7.75;4.38;;;25.50;99.90;;;;;;5032170;28;20656;-58
2022/07/19 07:55:25;;;;;;;8.93;4.47;;;25.50;99.90;;;;;;5033720;28;20033;-58
2022/07/19 07:57:51;;;;;;;10.80;4.40;;;25.60;99.90;;;;;;5033251;28;20440;-58
2022/07/19 08:00:18;;;;;;;8.02;3.80;;;25.70;99.90;;;;;;5033370;28;20393;-58
2022/07/19 08:02:45;;;;;;;8.35;4.22;;;25.70;99.90;;;;;;5033061;28;20197;-58
2022/07/19 08:05:11;;;;;;;7.63;4.03;;;25.90;99.90;;;;;;5033056;28;20037;-58
2022/07/19 08:07:37;;;;;;;8.75;3.97;;;26.10;99.90;;;;;;5032796;28;20434;-58
2022/07/19 08:10:06;;;;;;;7.38;3.58;;;26.00;99.90;;;;;;5032994;28;20081;-58
2022/07/19 08:12:32;;;;;;;8.15;3.83;;;26.20;99.90;;;;;;5033082;28;20048;-58
2022/07/19 08:14:58;;;;;;;10.50;3.40;;;26.30;99.90;;;;;;5033021;28;20117;-58
2022/07/19 08:17:24;;;;;;;7.32;3.53;;;26.30;99.90;;;;;;5032923;28;20543;-58
2022/07/19 08:19:50;;;;;;;8.68;3.58;;;26.40;99.90;;;;;;5034334;28;20049;-58
2022/07/19 08:22:16;;;;;;;7.47;3.10;;;26.60;99.90;;;;;;5051500;28;20379;-58
2022/07/19 08:24:43;;;;;;;9.20;3.60;;;26.70;99.90;;;;;;5052699;28;20052;-58
2022/07/19 08:27:08;;;;;;;7.57;3.53;;;26.70;99.90;;;;;;5052739;28;20052;-58
2022/07/19 08:29:34;;;;;;;8.35;3.55;;;26.90;99.90;;;;;;5067707;28;20062;-58
2022/07/19 08:32:00;;;;;;;8.65;3.70;;;27.00;99.90;;;;;;5052861;28;20500;-58
2022/07/19 08:34:25;;;;;;;9.05;3.38;;;27.00;99.90;;;;;;5052818;28;20468;-58
2022/07/19 08:36:51;;;;;;;6.75;3.55;;;27.20;99.90;;;;;;5068016;28;20070;-58
2022/07/19 08:39:17;;;;;;;8.13;3.08;;;27.20;99.90;;;;;;5052643;28;20374;-58
2022/07/19 08:41:44;;;;;;;7.03;3.15;;;27.20;99.90;;;;;;5052496;28;20127;-58
2022/07/19 08:44:11;;;;;;;7.38;3.35;;;27.30;99.90;;;;;;5052298;28;20045;-58
2022/07/19 08:46:38;;;;;;;9.05;3.63;;;27.40;99.90;;;;;;5052728;28;20127;-58
2022/07/19 08:49:04;;;;;;;6.95;2.88;;;27.40;99.90;;;;;;5067713;28;20048;-58
2022/07/19 08:51:30;;;;;;;8.20;3.08;;;27.50;99.90;;;;;;5052491;28;20039;-57
2022/07/19 08:53:57;;;;;;;7.78;3.33;;;27.80;99.90;;;;;;5052478;28;20041;-59
2022/07/19 08:59:07;;;;;;;6.53;2.90;;;27.80;99.90;;;;;;5052535;28;20067;-58
2022/07/19 09:01:33;;;;;;;6.95;3.13;;;28.00;99.90;;;;;;5052520;28;20072;-58
2022/07/19 09:04:11;;;;;;;6.45;2.75;;;28.20;99.90;;;;;;5052285;28;20393;-58
2022/07/19 09:06:50;;;;;;;8.38;3.30;;;28.20;99.90;;;;;;5052018;28;20037;-58
2022/07/19 09:09:25;;;;;;;10.25;3.30;;;28.30;99.90;;;;;;5051919;28;20426;-58
2022/07/19 09:11:52;;;;;;;14.52;3.10;;;28.30;99.90;;;;;;5052094;28;20474;-58
2022/07/19 09:14:25;;;;;;;21.63;3.55;;;28.50;99.50;;;;;;5052058;28;20447;-59
2022/07/19 09:17:01;;;;;;;8.23;3.20;;;28.60;98.90;;;;;;5067700;28;20476;-58
2022/07/19 09:19:28;;;;;;;8.13;3.08;;;28.60;98.70;;;;;;5067427;28;20049;-58
2022/07/19 09:21:57;;;;;;;7.82;3.33;;;28.70;98.80;;;;;;5037762;28;20037;-58
2022/07/19 09:24:24;;;;;;;6.82;2.75;;;28.80;98.60;;;;;;5035748;28;20556;-58
2022/07/19 09:27:06;;;;;;;9.60;2.95;;;28.90;97.80;;;;;;5051328;28;20121;-58
2022/07/19 09:29:34;;;;;;;8.13;2.45;;;29.10;97.50;;;;;;5035667;28;20057;-58
2022/07/19 09:32:01;;;;;;;7.35;3.13;;;29.20;98.10;;;;;;5034774;28;20390;-58
2022/07/19 09:34:31;;;;;;;8.57;3.10;;;29.20;97.50;;;;;;5035998;28;20100;-58
2022/07/19 09:37:23;;;;;;;7.78;2.83;;;29.40;98.00;;;;;;5036077;28;20398;-58
2022/07/19 09:39:52;;;;;;;7.10;2.38;;;29.50;97.40;;;;;;5034432;28;20061;-58
2022/07/19 09:42:22;;;;;;;9.60;3.10;;;29.60;98.20;;;;;;5036027;28;20037;-58
2022/07/19 09:45:00;;;;;;;5.82;2.38;;;29.60;96.70;;;;;;5035837;28;20132;-58
2022/07/19 09:47:37;;;;;;;6.00;2.50;;;29.70;96.70;;;;;;5036039;28;20490;-58
2022/07/19 09:50:14;;;;;;;6.43;2.30;;;29.80;96.60;;;;;;5035555;28;20371;-58
2022/07/19 09:52:40;;;;;;;7.03;3.22;;;29.80;95.80;;;;;;5051015;28;20052;-58
2022/07/19 09:55:08;;;;;;;7.43;2.80;;;29.90;96.20;;;;;;5035938;28;20072;-58
2022/07/19 09:57:40;;;;;;;7.97;2.72;;;30.00;96.40;;;;;;5035700;28;20037;-58
2022/07/19 10:00:09;;;;;;;6.53;2.50;;;30.10;95.70;;;;;;5035561;28;20103;-58
2022/07/19 10:02:37;;;;;;;13.35;2.70;;;30.10;95.40;;;;;;5050512;28;20049;-58
2022/07/19 10:05:04;;;;;;;9.80;2.47;;;30.20;95.60;;;;;;5034261;28;20152;-58
2022/07/19 10:07:34;;;;;;;7.35;2.92;;;30.30;94.70;;;;;;5035464;28;20041;-58
2022/07/19 10:10:05;;;;;;;6.85;2.47;;;30.30;95.60;;;;;;5035085;28;20045;-59
2022/07/19 10:12:32;;;;;;;6.45;2.58;;;30.30;94.40;;;;;;5033887;28;20406;-58
2022/07/19 10:14:58;;;;;;;6.53;2.40;;;30.40;94.30;;;;;;5033516;28;20049;-58
2022/07/19 10:17:33;;;;;;;8.30;2.60;;;30.40;93.70;;;;;;5035326;28;20041;-58
2022/07/19 10:19:59;;;;;;;7.43;2.15;;;30.50;94.80;;;;;;5037335;28;20056;-59
2022/07/19 10:22:26;;;;;;;6.65;2.53;;;30.60;93.90;;;;;;5070367;28;20044;-58
2022/07/19 10:24:55;;;;;;;8.70;2.40;;;30.70;94.60;;;;;;5053577;28;20135;-59
2022/07/19 10:27:23;;;;;;;6.90;2.13;;;30.80;94.20;;;;;;5054764;28;20067;-58
2022/07/19 10:29:49;;;;;;;7.07;2.38;;;30.90;94.00;;;;;;5054733;28;20053;-58
2022/07/19 10:32:15;;;;;;;6.22;2.22;;;31.00;94.20;;;;;;5054848;28;20099;-58
2022/07/19 10:34:43;;;;;;;6.35;2.25;;;31.10;93.50;;;;;;5070571;28;20048;-58
2022/07/19 10:37:09;;;;;;;5.22;2.03;;;31.20;93.40;;;;;;5054841;28;20112;-58
2022/07/19 10:39:39;;;;;;;6.32;2.40;;;31.30;93.80;;;;;;5054770;28;20133;-58
2022/07/19 10:42:27;;;;;;;6.53;2.25;;;31.30;93.00;;;;;;5054684;28;20053;-58
2022/07/19 10:44:56;;;;;;;6.03;2.00;;;31.40;93.20;;;;;;5054266;28;20453;-58
2022/07/19 10:47:22;;;;;;;4.63;2.13;;;31.30;92.20;;;;;;5054559;28;20041;-58
2022/07/19 10:49:48;;;;;;;7.82;2.35;;;31.40;92.80;;;;;;5054520;28;20048;-58
2022/07/19 10:52:29;;;;;;;6.18;2.30;;;31.40;91.90;;;;;;5054412;28;20505;-59
2022/07/19 10:55:17;;;;;;;6.30;2.17;;;31.60;91.60;;;;;;5054490;28;20041;-58
2022/07/19 10:57:58;;;;;;;7.18;2.45;;;31.60;91.50;;;;;;5054520;28;20060;-58
2022/07/19 11:00:29;;;;;;;5.75;2.15;;;31.70;92.00;;;;;;5054577;28;20037;-58
2022/07/19 11:03:28;;;;;;;6.95;2.40;;;31.60;91.50;;;;;;5054142;28;20047;-58
2022/07/19 11:05:56;;;;;;;6.05;2.50;;;31.80;91.20;;;;;;5054256;28;20041;-58
2022/07/19 11:08:36;;;;;;;7.43;2.40;;;32.00;91.60;;;;;;5054183;28;20033;-58
2022/07/19 11:11:07;;;;;;;7.10;2.33;;;32.20;89.70;;;;;;5054408;28;20250;-58
2022/07/19 11:13:38;;;;;;;8.05;2.30;;;32.00;90.00;;;;;;5054189;28;20045;-59
2022/07/19 11:16:04;;;;;;;5.70;2.20;;;32.10;90.60;;;;;;5053039;28;20118;-58
2022/07/19 11:18:31;;;;;;;5.65;2.00;;;32.20;90.40;;;;;;5054275;28;20084;-58
2022/07/19 11:21:01;;;;;;;6.10;2.13;;;32.30;90.60;;;;;;5043619;28;20397;-58
2022/07/19 11:23:32;;;;;;;4.90;2.00;;;32.40;90.50;;;;;;5034004;28;20045;-59
2022/07/19 11:26:20;;;;;;;7.70;2.10;;;32.50;90.50;;;;;;5032552;28;20048;-58
2022/07/19 11:28:47;;;;;;;4.97;1.90;;;32.50;86.80;;;;;;5033728;28;20128;-58
2022/07/19 11:31:18;;;;;;;4.93;2.30;;;32.50;88.20;;;;;;5033976;28;20133;-58
2022/07/19 11:33:47;;;;;;;7.43;2.20;;;32.50;88.60;;;;;;5033997;28;20417;-58
2022/07/19 11:36:17;;;;;;;7.18;1.80;;;32.70;87.80;;;;;;5049060;28;20493;-58
2022/07/19 11:38:58;;;;;;;5.63;1.90;;;32.70;88.30;;;;;;5034007;28;20045;-58
2022/07/19 11:41:30;;;;;;;6.55;1.67;;;32.80;88.20;;;;;;5032374;28;20049;-59
2022/07/19 11:43:59;;;;;;;;;;;32.80;86.80;;;;;;5033357;28;20052;-60
2022/07/19 11:46:37;;;;;;;5.35;1.73;;;32.70;84.90;;;;;;5032367;28;19941;-59
2022/07/19 11:49:04;;;;;;;6.60;2.08;;;32.90;86.10;;;;;;5033407;28;20619;-58
2022/07/19 11:51:31;;;;;;;6.40;1.88;;;32.90;85.80;;;;;;5033161;28;20486;-58
2022/07/19 11:53:58;;;;;;;5.28;1.73;;;33.10;84.70;;;;;;5033401;28;20084;-58
2022/07/19 11:56:29;;;;;;;5.78;1.77;;;33.10;84.10;;;;;;5033249;28;20037;-58
2022/07/19 11:58:57;;;;;;;6.63;1.77;;;33.10;84.90;;;;;;5033330;28;20053;-58
2022/07/19 12:01:27;;;;;;;3.45;1.40;;;33.30;85.40;;;;;;5033620;28;20045;-58
2022/07/19 12:03:54;;;;;;;4.05;1.40;;;33.30;81.00;;;;;;5033086;28;20037;-58
2022/07/19 12:06:33;;;;;;;4.82;1.75;;;33.30;82.70;;;;;;5033002;28;20041;-58
2022/07/19 12:09:05;;;;;;;6.90;1.55;;;33.30;84.40;;;;;;5033135;28;20406;-58
2022/07/19 12:11:41;;;;;;;4.32;1.67;;;33.50;82.30;;;;;;5032797;28;20041;-58
2022/07/19 12:14:20;;;;;;;4.93;1.70;;;33.50;83.20;;;;;;5032940;28;20116;-58
2022/07/19 12:16:47;;;;;;;4.85;2.10;;;33.60;83.00;;;;;;5033083;28;20112;-58
2022/07/19 12:19:14;;;;;;;4.35;1.65;;;33.70;79.90;;;;;;5048402;28;20099;-58
2022/07/19 12:21:41;;;;;;;4.35;1.75;;;33.70;82.10;;;;;;5064654;28;20045;-58
2022/07/19 12:24:09;;;;;;;5.68;1.60;;;33.80;81.40;;;;;;5052737;28;20044;-58
2022/07/19 12:26:36;;;;;;;5.88;1.73;;;33.70;79.70;;;;;;5052962;28;20040;-58
2022/07/19 12:29:19;;;;;;;5.47;1.80;;;33.70;80.70;;;;;;5052388;28;20754;-59
2022/07/19 12:31:47;;;;;;;6.45;1.60;;;33.70;81.00;;;;;;5052738;28;20064;-58
2022/07/19 12:34:15;;;;;;;5.25;1.75;;;33.80;79.20;;;;;;5052555;28;20045;-58
2022/07/19 12:36:40;;;;;;;4.18;1.67;;;33.90;79.00;;;;;;5052315;28;20041;-58
2022/07/19 12:39:18;;;;;;;7.43;2.70;;;33.90;77.40;;;;;;5052287;28;20541;-57
2022/07/19 12:42:01;;;;;;;6.03;1.50;;;34.00;74.80;;;;;;5052624;28;20049;-58
2022/07/19 12:44:27;;;;;;;5.18;1.60;;;34.10;74.70;;;;;;5052506;28;20044;-58
2022/07/19 12:46:53;;;;;;;5.65;1.35;;;34.20;76.20;;;;;;5052251;28;20551;-58
2022/07/19 12:49:19;;;;;;;4.63;1.40;;;34.20;75.80;;;;;;5052148;28;20063;-58
2022/07/19 12:51:45;;;;;;;3.95;1.50;;;34.20;75.80;;;;;;5052209;28;20045;-58